Time;durP1;ratioP1;P1;durP2;ratioP2;P2;SDS_P1;SDS_P2;PMS_P1;PMS_P2;Temp;Humidity;BMP_temperature;BMP_pressure;BME280_temperature;BME280_humidity;BME280_pressure;Samples;Min_cycle;Max_cycle;Signal;HPM_P1;HPM_P2
2021/05/04 00:01:10;;;;;;;0.20;0.20;;;8.20;98.20;;;;;;5070580;28;20046;-81
2021/05/04 00:03:36;;;;;;;0.10;0.10;;;8.20;98.20;;;;;;5086917;28;20032;-81
2021/05/04 00:06:02;;;;;;;0.10;0.10;;;7.80;98.90;;;;;;5079771;28;20077;-80
2021/05/04 00:08:27;;;;;;;0.20;0.20;;;7.70;99.40;;;;;;5050332;28;20444;-80
2021/05/04 00:10:53;;;;;;;0.00;0.00;;;7.70;99.80;;;;;;5090871;28;20036;-81
2021/05/04 00:13:19;;;;;;;0.10;0.10;;;7.80;99.50;;;;;;5052816;28;20058;-81
2021/05/04 00:15:45;;;;;;;0.10;0.10;;;7.90;99.20;;;;;;5079308;28;20028;-81
2021/05/04 00:18:11;;;;;;;0.20;0.20;;;7.90;99.40;;;;;;5068133;28;20032;-80
2021/05/04 00:20:36;;;;;;;0.00;0.00;;;8.00;99.40;;;;;;5074785;28;20077;-81
2021/05/04 00:23:02;;;;;;;0.20;0.20;;;8.00;99.30;;;;;;5080180;28;20029;-80
2021/05/04 00:25:28;;;;;;;3.85;1.13;;;8.00;99.30;;;;;;5046634;28;20688;-80
2021/05/04 00:27:54;;;;;;;0.17;0.17;;;8.20;99.10;;;;;;5066286;28;20037;-80
2021/05/04 00:30:20;;;;;;;0.00;0.00;;;8.20;99.10;;;;;;5076362;28;20035;-81
2021/05/04 00:32:45;;;;;;;0.10;0.10;;;8.40;98.40;;;;;;5084179;28;20465;-81
2021/05/04 00:35:11;;;;;;;0.10;0.10;;;8.30;98.70;;;;;;5086265;28;20107;-81
2021/05/04 00:37:37;;;;;;;0.10;0.10;;;8.10;99.00;;;;;;5084569;28;20608;-81
2021/05/04 00:40:04;;;;;;;0.10;0.10;;;8.00;99.20;;;;;;5081308;28;20653;-81
2021/05/04 00:42:29;;;;;;;11.60;0.75;;;7.90;99.90;;;;;;5083490;28;20036;-81
2021/05/04 00:44:55;;;;;;;0.10;0.10;;;7.90;99.40;;;;;;5082150;28;20025;-81
2021/05/04 00:47:21;;;;;;;0.00;0.00;;;7.90;99.40;;;;;;5071063;28;20036;-80
2021/05/04 00:49:47;;;;;;;0.10;0.10;;;7.80;99.90;;;;;;5071339;28;20035;-81
2021/05/04 00:52:14;;;;;;;0.00;0.00;;;8.00;99.40;;;;;;5083082;28;20399;-80
2021/05/04 00:54:41;;;;;;;0.00;0.00;;;7.90;99.40;;;;;;5089721;28;20024;-80
2021/05/04 00:57:08;;;;;;;0.32;0.17;;;8.20;99.10;;;;;;5071661;28;20113;-81
2021/05/04 00:59:36;;;;;;;0.32;0.20;;;8.20;98.90;;;;;;5068428;28;20093;-81
2021/05/04 01:02:03;;;;;;;0.00;0.00;;;8.20;98.70;;;;;;5074088;28;20032;-81
2021/05/04 01:04:29;;;;;;;0.10;0.10;;;7.90;99.30;;;;;;5050014;28;20032;-81
2021/05/04 01:06:55;;;;;;;0.45;0.30;;;7.80;99.90;;;;;;5054960;28;20040;-81
2021/05/04 01:09:21;;;;;;;0.10;0.10;;;7.80;99.90;;;;;;5086622;28;20028;-80
2021/05/04 01:11:47;;;;;;;0.05;0.05;;;7.80;99.90;;;;;;5076159;28;20062;-80
2021/05/04 01:14:14;;;;;;;0.08;0.08;;;7.90;99.80;;;;;;5077135;28;20393;-81
2021/05/04 01:16:42;;;;;;;1.25;0.70;;;7.50;99.90;;;;;;5084104;28;20024;-81
2021/05/04 01:19:09;;;;;;;0.10;0.10;;;7.30;99.90;;;;;;5054867;28;20032;-81
2021/05/04 01:21:35;;;;;;;0.00;0.00;;;7.10;99.90;;;;;;5062190;28;20028;-81
2021/05/04 01:24:01;;;;;;;0.10;0.10;;;7.00;99.90;;;;;;5069102;28;20039;-81
2021/05/04 01:26:27;;;;;;;0.00;0.00;;;6.80;99.90;;;;;;5088824;28;20028;-81
2021/05/04 01:28:52;;;;;;;0.70;0.70;;;6.70;99.90;;;;;;5066435;28;20045;-80
2021/05/04 01:31:18;;;;;;;0.15;0.15;;;6.60;99.90;;;;;;5068303;28;20028;-81
2021/05/04 01:33:44;;;;;;;0.08;0.08;;;6.80;99.90;;;;;;5070267;28;20035;-81
2021/05/04 01:36:10;;;;;;;0.10;0.10;;;6.80;99.90;;;;;;5073625;28;20054;-81
2021/05/04 01:38:36;;;;;;;0.32;0.32;;;6.90;99.90;;;;;;5087384;28;20028;-81
2021/05/04 01:41:02;;;;;;;0.15;0.15;;;6.90;99.90;;;;;;5078545;28;20923;-80
2021/05/04 01:43:27;;;;;;;0.10;0.10;;;7.00;99.90;;;;;;5068772;28;20040;-80
2021/05/04 01:45:53;;;;;;;0.10;0.10;;;6.80;99.90;;;;;;5069331;28;20036;-80
2021/05/04 01:48:19;;;;;;;0.03;0.03;;;6.90;99.90;;;;;;5076269;28;20822;-81
2021/05/04 01:50:45;;;;;;;0.00;0.00;;;7.10;99.90;;;;;;5069263;28;20028;-81
2021/05/04 01:53:10;;;;;;;0.40;0.30;;;7.20;99.90;;;;;;5070392;28;20025;-80
2021/05/04 01:55:36;;;;;;;0.30;0.30;;;7.40;99.90;;;;;;5079445;28;20118;-81
2021/05/04 01:58:02;;;;;;;0.10;0.10;;;7.50;99.90;;;;;;5080031;28;20032;-81
2021/05/04 02:00:28;;;;;;;0.00;0.00;;;7.60;99.90;;;;;;5072532;28;20071;-81
2021/05/04 02:02:55;;;;;;;0.10;0.10;;;7.70;99.90;;;;;;5069244;28;20056;-81
2021/05/04 02:05:21;;;;;;;0.00;0.00;;;8.00;99.90;;;;;;5068342;28;20024;-81
2021/05/04 02:07:50;;;;;;;0.00;0.00;;;8.20;99.90;;;;;;5069348;28;20420;-81
2021/05/04 02:10:16;;;;;;;0.10;0.10;;;8.30;99.90;;;;;;5080129;28;20045;-81
2021/05/04 02:12:42;;;;;;;0.22;0.22;;;8.30;99.90;;;;;;5069619;28;20455;-81
2021/05/04 02:15:09;;;;;;;0.10;0.10;;;8.20;99.90;;;;;;5085273;28;20396;-81
2021/05/04 02:17:35;;;;;;;0.20;0.20;;;8.20;99.90;;;;;;5086671;28;20028;-81
2021/05/04 02:20:01;;;;;;;0.20;0.20;;;8.20;99.90;;;;;;5071532;28;20051;-81
2021/05/04 02:22:26;;;;;;;0.32;0.25;;;8.30;99.90;;;;;;5077120;28;20036;-80
2021/05/04 02:24:52;;;;;;;0.00;0.00;;;8.40;99.90;;;;;;5085995;28;20028;-81
2021/05/04 02:27:18;;;;;;;0.52;0.22;;;8.40;99.90;;;;;;5076462;28;20032;-80
2021/05/04 02:29:44;;;;;;;0.00;0.00;;;8.20;99.90;;;;;;5068834;28;20032;-81
2021/05/04 02:32:10;;;;;;;0.22;0.22;;;8.10;99.90;;;;;;5068326;28;20035;-81
2021/05/04 02:34:36;;;;;;;0.08;0.08;;;8.00;99.90;;;;;;5079931;28;20031;-81
2021/05/04 02:37:02;;;;;;;0.15;0.15;;;8.00;99.90;;;;;;5080694;28;20021;-81
2021/05/04 02:39:27;;;;;;;0.43;0.32;;;8.00;99.90;;;;;;5088548;28;20063;-81
2021/05/04 02:41:53;;;;;;;0.10;0.10;;;7.90;99.90;;;;;;5087989;28;20024;-81
2021/05/04 02:44:19;;;;;;;0.10;0.10;;;7.90;99.90;;;;;;5074952;28;20028;-80
2021/05/04 02:46:45;;;;;;;0.10;0.10;;;8.00;99.90;;;;;;5086708;28;20028;-80
2021/05/04 02:49:11;;;;;;;0.00;0.00;;;8.00;99.90;;;;;;5070878;28;20059;-80
2021/05/04 02:51:37;;;;;;;0.10;0.10;;;8.10;99.90;;;;;;5068166;28;20090;-80
2021/05/04 02:54:03;;;;;;;0.10;0.10;;;8.20;99.90;;;;;;5072940;28;20034;-81
2021/05/04 02:56:29;;;;;;;0.98;0.90;;;8.50;99.90;;;;;;5075703;28;20411;-81
2021/05/04 02:58:55;;;;;;;0.10;0.10;;;8.60;99.90;;;;;;5073334;28;20035;-81
2021/05/04 03:01:20;;;;;;;0.20;0.20;;;8.60;99.90;;;;;;5077160;28;20097;-80
2021/05/04 03:03:46;;;;;;;0.13;0.13;;;8.60;99.90;;;;;;5088349;28;20024;-81
2021/05/04 03:06:12;;;;;;;0.10;0.10;;;8.80;99.90;;;;;;5088052;28;20031;-81
2021/05/04 03:08:37;;;;;;;0.10;0.10;;;8.70;99.90;;;;;;5077946;28;20032;-81
2021/05/04 03:11:03;;;;;;;0.00;0.00;;;8.30;99.90;;;;;;5077717;28;20043;-80
2021/05/04 03:13:32;;;;;;;1.13;0.80;;;8.30;99.90;;;;;;5083787;28;20028;-80
2021/05/04 03:15:58;;;;;;;0.00;0.00;;;8.30;99.90;;;;;;5086930;28;20024;-80
2021/05/04 03:18:24;;;;;;;0.57;0.57;;;8.30;99.90;;;;;;5086962;28;20031;-81
2021/05/04 03:20:51;;;;;;;0.17;0.17;;;8.30;99.90;;;;;;5077209;28;20047;-80
2021/05/04 03:23:19;;;;;;;0.10;0.10;;;8.80;99.90;;;;;;5064014;28;20630;-80
2021/05/04 03:25:45;;;;;;;0.10;0.10;;;8.70;99.90;;;;;;5087627;28;20510;-81
2021/05/04 03:28:12;;;;;;;0.00;0.00;;;8.60;99.90;;;;;;5078617;28;20035;-81
2021/05/04 03:30:38;;;;;;;0.00;0.00;;;8.80;99.90;;;;;;5078205;28;20536;-81
2021/05/04 03:33:05;;;;;;;0.27;0.27;;;8.90;99.90;;;;;;5065930;28;20033;-81
2021/05/04 03:35:31;;;;;;;;;;;8.90;99.90;;;;;;5071829;28;20296;-81
2021/05/04 03:37:56;;;;;;;0.10;0.10;;;8.80;99.90;;;;;;5081138;28;19912;-81
2021/05/04 03:40:22;;;;;;;0.40;0.40;;;8.30;99.90;;;;;;5061626;28;20785;-81
2021/05/04 03:42:48;;;;;;;0.00;0.00;;;7.80;99.90;;;;;;5067521;28;20090;-81
2021/05/04 03:45:14;;;;;;;0.95;0.80;;;7.40;99.90;;;;;;5068166;28;20388;-81
2021/05/04 03:47:42;;;;;;;0.30;0.30;;;7.30;99.90;;;;;;5067487;28;20039;-81
2021/05/04 03:50:20;;;;;;;0.00;0.00;;;7.20;99.90;;;;;;5081900;28;20065;-81
2021/05/04 03:52:46;;;;;;;0.10;0.10;;;7.30;99.90;;;;;;5087635;28;20023;-81
2021/05/04 03:55:12;;;;;;;0.00;0.00;;;7.10;99.90;;;;;;5087670;28;20024;-81
2021/05/04 03:57:38;;;;;;;0.00;0.00;;;7.10;99.90;;;;;;5086343;28;20116;-81
2021/05/04 04:00:06;;;;;;;0.00;0.00;;;7.20;99.90;;;;;;5060853;28;20033;-81
2021/05/04 04:02:31;;;;;;;0.22;0.22;;;7.50;99.90;;;;;;5076881;28;20793;-81
2021/05/04 04:04:57;;;;;;;0.08;0.08;;;7.70;99.90;;;;;;5067738;28;20036;-81
2021/05/04 04:07:23;;;;;;;0.20;0.20;;;7.80;99.90;;;;;;5078834;28;20520;-81
2021/05/04 04:09:49;;;;;;;0.10;0.10;;;8.00;99.90;;;;;;5087573;28;20047;-80
2021/05/04 04:12:15;;;;;;;0.20;0.20;;;8.00;99.90;;;;;;5084647;28;20514;-80
2021/05/04 04:14:41;;;;;;;0.10;0.10;;;7.80;99.90;;;;;;5089789;28;20514;-80
2021/05/04 04:17:07;;;;;;;0.40;0.20;;;7.70;99.90;;;;;;5083308;28;20032;-80
2021/05/04 04:19:32;;;;;;;0.00;0.00;;;7.70;99.90;;;;;;5091183;28;20078;-80
2021/05/04 04:21:58;;;;;;;0.00;0.00;;;7.90;99.90;;;;;;5087342;28;20032;-81
2021/05/04 04:24:24;;;;;;;0.32;0.32;;;7.90;99.90;;;;;;5072940;28;20033;-81
2021/05/04 04:26:50;;;;;;;0.00;0.00;;;8.00;99.90;;;;;;5089289;28;20115;-81
2021/05/04 04:29:15;;;;;;;0.10;0.10;;;8.20;99.90;;;;;;5080867;28;20044;-81
2021/05/04 04:31:41;;;;;;;0.10;0.10;;;8.20;99.90;;;;;;5082526;28;20024;-81
2021/05/04 04:34:07;;;;;;;0.00;0.00;;;8.00;99.90;;;;;;5071031;28;20117;-81
2021/05/04 04:36:33;;;;;;;0.25;0.25;;;8.20;99.90;;;;;;5075640;28;20031;-80
2021/05/04 04:38:59;;;;;;;0.00;0.00;;;8.30;99.90;;;;;;5085697;28;20028;-81
2021/05/04 04:41:25;;;;;;;0.00;0.00;;;8.20;99.90;;;;;;5073990;28;20037;-80
2021/05/04 04:43:51;;;;;;;0.50;0.45;;;7.90;99.90;;;;;;5079828;28;20432;-81
2021/05/04 04:46:16;;;;;;;0.05;0.05;;;7.90;99.90;;;;;;5082198;28;20411;-83
2021/05/04 04:48:42;;;;;;;0.10;0.10;;;7.90;99.90;;;;;;5072464;28;20036;-83
2021/05/04 04:51:08;;;;;;;0.35;0.30;;;8.10;99.90;;;;;;5088534;28;20028;-83
2021/05/04 04:53:34;;;;;;;0.05;0.05;;;8.30;99.90;;;;;;5090903;28;20039;-85
2021/05/04 04:55:59;;;;;;;0.17;0.17;;;8.40;99.90;;;;;;5091221;28;20028;-84
2021/05/04 04:58:25;;;;;;;0.00;0.00;;;8.70;99.90;;;;;;5075052;28;20107;-83
2021/05/04 05:00:51;;;;;;;0.40;0.40;;;8.70;99.90;;;;;;5070161;28;20047;-83
2021/05/04 05:03:19;;;;;;;0.00;0.00;;;8.60;99.90;;;;;;5078514;28;20028;-83
2021/05/04 05:05:48;;;;;;;0.05;0.05;;;8.90;99.90;;;;;;5056992;28;20045;-83
2021/05/04 05:08:14;;;;;;;0.10;0.10;;;8.90;99.90;;;;;;5065905;28;20070;-83
2021/05/04 05:10:40;;;;;;;0.10;0.10;;;9.00;99.90;;;;;;5061562;28;20044;-83
2021/05/04 05:13:05;;;;;;;0.10;0.10;;;9.10;99.90;;;;;;5054181;28;20492;-82
2021/05/04 05:15:37;;;;;;;0.20;0.20;;;9.10;99.90;;;;;;5054450;28;20753;-84
2021/05/04 05:18:05;;;;;;;0.10;0.10;;;9.10;99.90;;;;;;5059943;28;20029;-84
2021/05/04 05:20:32;;;;;;;0.38;0.38;;;9.30;99.90;;;;;;5060907;28;20021;-83
2021/05/04 05:22:58;;;;;;;0.08;0.08;;;9.40;99.90;;;;;;5060931;28;20068;-83
2021/05/04 05:25:24;;;;;;;0.10;0.10;;;9.40;99.90;;;;;;5062207;28;20049;-82
2021/05/04 05:27:49;;;;;;;0.00;0.00;;;9.40;99.90;;;;;;5066543;28;20029;-82
2021/05/04 05:30:15;;;;;;;0.10;0.10;;;9.40;99.90;;;;;;5064964;28;20108;-82
2021/05/04 05:32:41;;;;;;;0.10;0.10;;;9.60;99.90;;;;;;5061328;28;20029;-82
2021/05/04 05:35:08;;;;;;;3.85;1.38;;;9.70;99.90;;;;;;5064778;28;20020;-82
2021/05/04 05:37:34;;;;;;;0.10;0.10;;;9.80;99.90;;;;;;5071832;28;20698;-83
2021/05/04 05:40:00;;;;;;;0.05;0.05;;;9.80;99.90;;;;;;5075431;28;20052;-83
2021/05/04 05:42:26;;;;;;;0.20;0.20;;;9.70;99.90;;;;;;5089530;28;20063;-83
2021/05/04 05:44:51;;;;;;;0.57;0.50;;;9.80;99.90;;;;;;5081294;28;20032;-84
2021/05/04 05:47:17;;;;;;;0.00;0.00;;;9.50;99.90;;;;;;5076549;28;20032;-84
2021/05/04 05:49:43;;;;;;;0.20;0.20;;;9.70;99.90;;;;;;5088315;28;20515;-84
2021/05/04 05:52:09;;;;;;;0.13;0.13;;;10.00;99.90;;;;;;5090561;28;20032;-83
2021/05/04 05:54:36;;;;;;;0.07;0.07;;;10.10;99.90;;;;;;5089471;28;20103;-84
2021/05/04 05:57:02;;;;;;;0.00;0.00;;;10.20;99.90;;;;;;5081854;28;20077;-85
2021/05/04 05:59:28;;;;;;;0.10;0.10;;;10.30;99.90;;;;;;5081584;28;20067;-85
2021/05/04 06:01:54;;;;;;;0.40;0.40;;;10.60;99.90;;;;;;5051412;28;20071;-85
2021/05/04 06:04:19;;;;;;;0.40;0.38;;;10.90;99.90;;;;;;5050375;28;20508;-85
2021/05/04 06:06:45;;;;;;;0.10;0.10;;;10.80;99.90;;;;;;5049009;28;20072;-85
2021/05/04 06:09:11;;;;;;;0.00;0.00;;;10.80;99.90;;;;;;5049692;28;20025;-85
2021/05/04 06:11:37;;;;;;;0.13;0.13;;;11.10;99.90;;;;;;5050457;28;20037;-85
2021/05/04 06:14:03;;;;;;;0.10;0.10;;;11.30;99.90;;;;;;5049832;28;20025;-85
2021/05/04 06:16:29;;;;;;;0.00;0.00;;;11.10;99.90;;;;;;5062892;28;20491;-85
2021/05/04 06:18:55;;;;;;;3.05;0.20;;;11.00;99.90;;;;;;5068655;28;20448;-85
2021/05/04 06:21:21;;;;;;;0.00;0.00;;;10.90;99.90;;;;;;5083665;28;20020;-85
2021/05/04 06:23:47;;;;;;;0.20;0.20;;;11.00;99.90;;;;;;5090263;28;20081;-85
2021/05/04 06:26:13;;;;;;;0.08;0.08;;;10.80;99.90;;;;;;5083814;28;20537;-85
2021/05/04 06:28:40;;;;;;;0.10;0.10;;;10.60;99.90;;;;;;5074792;28;20032;-85
2021/05/04 06:31:07;;;;;;;0.10;0.10;;;10.60;99.90;;;;;;5083192;28;20069;-86
2021/05/04 06:33:33;;;;;;;0.10;0.10;;;11.20;99.90;;;;;;5090034;28;20504;-85
2021/05/04 06:35:59;;;;;;;0.20;0.20;;;11.40;99.90;;;;;;5078517;28;20047;-85
2021/05/04 06:38:25;;;;;;;0.13;0.13;;;11.70;99.90;;;;;;5072264;28;20028;-85
2021/05/04 06:40:51;;;;;;;0.10;0.10;;;14.20;99.10;;;;;;5084120;28;20031;-86
2021/05/04 06:43:18;;;;;;;0.00;0.00;;;16.70;95.70;;;;;;5067396;28;20054;-85
2021/05/04 06:45:43;;;;;;;;;;;17.20;92.80;;;;;;5070041;28;20028;-84
2021/05/04 06:48:09;;;;;;;0.00;0.00;;;19.00;88.60;;;;;;5069626;28;19914;-84
2021/05/04 06:50:35;;;;;;;0.10;0.10;;;19.00;84.80;;;;;;5073709;28;20128;-84
2021/05/04 06:53:02;;;;;;;0.08;0.05;;;20.20;84.90;;;;;;5076462;28;20020;-85
2021/05/04 06:55:28;;;;;;;0.15;0.10;;;21.40;77.50;;;;;;5084967;28;20036;-83
2021/05/04 06:57:54;;;;;;;0.00;0.00;;;22.00;70.90;;;;;;5083350;28;20073;-83
2021/05/04 07:00:20;;;;;;;0.20;0.20;;;19.40;73.50;;;;;;5071134;28;20036;-84
2021/05/04 07:02:46;;;;;;;0.00;0.00;;;18.30;81.50;;;;;;5084931;28;20101;-83
2021/05/04 07:05:13;;;;;;;0.00;0.00;;;20.10;74.20;;;;;;5069105;28;20032;-83
2021/05/04 07:07:38;;;;;;;0.30;0.30;;;20.20;76.40;;;;;;5069089;28;20048;-83
2021/05/04 07:10:04;;;;;;;0.10;0.10;;;18.60;78.10;;;;;;5069434;28;20032;-84
2021/05/04 07:12:30;;;;;;;0.47;0.47;;;19.90;74.40;;;;;;5073230;28;20048;-82
2021/05/04 07:14:56;;;;;;;3.23;1.40;;;20.00;72.10;;;;;;5057088;28;20059;-83
2021/05/04 07:17:23;;;;;;;0.00;0.00;;;19.10;75.50;;;;;;5067747;28;20032;-83
2021/05/04 07:19:50;;;;;;;0.22;0.22;;;21.70;70.60;;;;;;5069048;28;20025;-83
2021/05/04 07:22:16;;;;;;;0.00;0.00;;;23.80;67.40;;;;;;5069266;28;20111;-83
2021/05/04 07:24:41;;;;;;;0.20;0.10;;;22.70;62.40;;;;;;5068819;28;20103;-83
2021/05/04 07:27:07;;;;;;;0.17;0.17;;;21.80;61.20;;;;;;5069162;28;20056;-83
2021/05/04 07:29:35;;;;;;;0.00;0.00;;;21.20;66.50;;;;;;5082373;28;20028;-83
2021/05/04 07:32:00;;;;;;;0.13;0.10;;;20.60;69.10;;;;;;5089340;28;20487;-84
2021/05/04 07:34:26;;;;;;;0.00;0.00;;;23.40;63.80;;;;;;5089165;28;20050;-83
2021/05/04 07:36:52;;;;;;;1.03;0.87;;;22.30;58.10;;;;;;5087859;28;20093;-84
2021/05/04 07:39:18;;;;;;;0.28;0.20;;;19.50;65.40;;;;;;5089072;28;20106;-83
2021/05/04 07:41:44;;;;;;;0.10;0.10;;;19.10;68.20;;;;;;5091114;28;20446;-83
2021/05/04 07:44:10;;;;;;;0.10;0.10;;;21.40;65.80;;;;;;5093204;28;20028;-84
2021/05/04 07:46:35;;;;;;;3.03;0.07;;;23.50;61.40;;;;;;5092785;28;20772;-84
2021/05/04 07:49:02;;;;;;;0.10;0.10;;;24.00;57.00;;;;;;5093082;28;20029;-84
2021/05/04 07:51:27;;;;;;;0.00;0.00;;;21.10;58.10;;;;;;5093205;28;20522;-84
2021/05/04 07:53:53;;;;;;;0.30;0.30;;;19.30;66.30;;;;;;5092658;28;20032;-84
2021/05/04 07:56:19;;;;;;;0.20;0.20;;;18.70;67.40;;;;;;5080260;28;20028;-84
2021/05/04 07:58:45;;;;;;;0.10;0.10;;;19.20;70.50;;;;;;5072339;28;20052;-83
2021/05/04 08:01:11;;;;;;;0.25;0.25;;;19.60;66.90;;;;;;5060066;28;20031;-83
2021/05/04 08:03:37;;;;;;;0.33;0.33;;;19.40;68.10;;;;;;5052403;28;20041;-83
2021/05/04 08:06:03;;;;;;;0.10;0.10;;;18.40;68.70;;;;;;5050715;28;20413;-83
2021/05/04 08:08:29;;;;;;;;;;;18.30;70.50;;;;;;5052451;28;20053;-83
2021/05/04 08:10:55;;;;;;;0.10;0.10;;;18.00;71.90;;;;;;5068804;28;19904;-82
2021/05/04 08:13:21;;;;;;;16.20;0.37;;;16.70;76.90;;;;;;5090548;28;20031;-83
2021/05/04 08:15:49;;;;;;;0.50;0.50;;;16.00;80.20;;;;;;5090937;28;20150;-82
2021/05/04 08:18:16;;;;;;;0.10;0.10;;;15.50;82.00;;;;;;5091007;28;20590;-82
2021/05/04 08:20:54;;;;;;;0.20;0.20;;;15.60;83.10;;;;;;5090860;28;20097;-82
2021/05/04 08:23:23;;;;;;;0.20;0.20;;;16.50;83.20;;;;;;5090888;28;20441;-82
2021/05/04 08:25:52;;;;;;;1.15;1.05;;;17.80;80.20;;;;;;5090638;28;20514;-83
2021/05/04 08:28:18;;;;;;;0.00;0.00;;;20.10;76.60;;;;;;5091858;28;20032;-82
2021/05/04 08:30:44;;;;;;;0.38;0.15;;;22.00;71.80;;;;;;5092018;28;20484;-82
2021/05/04 08:33:10;;;;;;;0.20;0.20;;;23.50;65.90;;;;;;5091532;28;20028;-84
2021/05/04 08:35:36;;;;;;;0.00;0.00;;;23.80;64.40;;;;;;5091920;28;20013;-83
2021/05/04 08:38:02;;;;;;;0.10;0.10;;;23.20;63.40;;;;;;5091798;28;20099;-83
2021/05/04 08:40:28;;;;;;;0.38;0.38;;;22.20;63.50;;;;;;5092045;28;20036;-84
2021/05/04 08:42:54;;;;;;;0.17;0.17;;;26.30;58.30;;;;;;5091737;28;20098;-84
2021/05/04 08:45:20;;;;;;;0.10;0.05;;;26.30;54.70;;;;;;5091958;28;20638;-84
2021/05/04 08:47:48;;;;;;;0.77;0.57;;;23.20;60.40;;;;;;5092165;28;20037;-83
2021/05/04 08:50:19;;;;;;;0.20;0.20;;;20.10;65.70;;;;;;5091440;28;20034;-83
2021/05/04 08:52:45;;;;;;;0.00;0.00;;;18.30;72.10;;;;;;5091202;28;20060;-83
2021/05/04 08:55:12;;;;;;;0.30;0.30;;;18.10;74.10;;;;;;5090380;28;20016;-83
2021/05/04 08:57:39;;;;;;;0.10;0.10;;;18.30;74.20;;;;;;5091909;28;20105;-84
2021/05/04 09:00:10;;;;;;;0.43;0.30;;;17.70;75.80;;;;;;5088420;28;20031;-84
2021/05/04 09:02:57;;;;;;;0.00;0.00;;;19.00;73.00;;;;;;5071747;28;20025;-83
2021/05/04 09:05:23;;;;;;;0.30;0.30;;;21.40;68.10;;;;;;5090288;28;20069;-84
2021/05/04 09:07:49;;;;;;;0.37;0.30;;;23.40;62.10;;;;;;5091511;28;20127;-84
2021/05/04 09:10:28;;;;;;;0.05;0.05;;;22.60;75.00;;;;;;5091502;28;20294;-84
2021/05/04 09:21:09;;;;;;;0.03;0.03;;;22.40;64.90;;;;;;5081209;28;20025;-83
2021/05/04 09:23:36;;;;;;;0.10;0.10;;;22.60;61.80;;;;;;5069721;28;20025;-84
2021/05/04 09:26:01;;;;;;;;;;;23.80;58.50;;;;;;5071262;28;20077;-84
2021/05/04 09:28:27;;;;;;;0.90;0.50;;;23.90;55.20;;;;;;5070740;28;20003;-84
2021/05/04 09:30:56;;;;;;;0.00;0.00;;;24.60;57.20;;;;;;5070998;28;20778;-83
2021/05/04 09:33:22;;;;;;;0.15;0.15;;;25.20;53.20;;;;;;5070490;28;20024;-84
2021/05/04 09:35:48;;;;;;;0.30;0.28;;;25.80;53.50;;;;;;5070878;28;20397;-84
2021/05/04 09:38:19;;;;;;;1.23;0.45;;;27.10;46.30;;;;;;5072350;28;20043;-84
2021/05/04 09:40:46;;;;;;;0.17;0.17;;;24.10;54.40;;;;;;5090701;28;20404;-84
2021/05/04 09:43:23;;;;;;;0.10;0.10;;;24.60;59.10;;;;;;5090948;28;20035;-83
2021/05/04 09:45:55;;;;;;;;;;;25.20;50.80;;;;;;5091273;28;20024;-84
2021/05/04 09:48:25;;;;;;;0.10;0.10;;;29.40;41.40;;;;;;5090464;28;19904;-84
2021/05/04 09:51:05;;;;;;;0.10;0.10;;;26.80;49.70;;;;;;5090717;28;20062;-85
2021/05/04 09:53:39;;;;;;;0.52;0.20;;;27.10;47.90;;;;;;5090379;28;20499;-84
2021/05/04 09:56:06;;;;;;;0.13;0.13;;;26.30;50.90;;;;;;5090702;28;20051;-84
2021/05/04 09:58:33;;;;;;;;;;;28.00;46.10;;;;;;5090724;28;20069;-85
2021/05/04 10:00:59;;;;;;;0.17;0.17;;;28.80;43.40;;;;;;5069547;28;19939;-84
2021/05/04 10:03:26;;;;;;;0.00;0.00;;;26.80;47.30;;;;;;5050205;28;20021;-85
2021/05/04 10:05:54;;;;;;;0.05;0.05;;;28.20;41.90;;;;;;5050487;28;20501;-85
2021/05/04 10:08:20;;;;;;;0.00;0.00;;;27.90;43.30;;;;;;5069592;28;20048;-84
2021/05/04 10:10:47;;;;;;;0.20;0.20;;;27.70;43.00;;;;;;5081687;28;20070;-85
2021/05/04 10:13:13;;;;;;;7.60;0.17;;;25.50;46.80;;;;;;5069989;28;20031;-84
2021/05/04 10:15:42;;;;;;;0.00;0.00;;;25.60;48.80;;;;;;5069770;28;20111;-84
2021/05/04 10:18:08;;;;;;;0.30;0.30;;;25.10;49.50;;;;;;5069706;28;20064;-84
2021/05/04 10:20:34;;;;;;;0.28;0.28;;;24.60;49.40;;;;;;5069294;28;20041;-84
2021/05/04 10:23:00;;;;;;;0.95;0.70;;;25.60;48.50;;;;;;5069787;28;20074;-84
2021/05/04 10:25:26;;;;;;;0.17;0.17;;;27.10;44.10;;;;;;5069660;28;20435;-84
2021/05/04 10:27:56;;;;;;;0.10;0.10;;;25.50;45.90;;;;;;5069662;28;20770;-84
2021/05/04 10:30:23;;;;;;;0.10;0.10;;;27.60;42.90;;;;;;5069527;28;20051;-84
2021/05/04 10:32:54;;;;;;;1.67;1.08;;;25.50;45.70;;;;;;5075024;28;20020;-83
2021/05/04 10:35:29;;;;;;;0.35;0.20;;;25.40;45.00;;;;;;5090047;28;20070;-84
2021/05/04 10:37:59;;;;;;;0.10;0.10;;;26.00;46.00;;;;;;5089741;28;20144;-83
2021/05/04 10:40:35;;;;;;;1.08;0.98;;;26.50;44.20;;;;;;5090169;28;20035;-83
2021/05/04 10:43:22;;;;;;;0.17;0.17;;;25.80;44.40;;;;;;5088479;28;20048;-84
2021/05/04 10:45:53;;;;;;;0.35;0.35;;;25.50;45.20;;;;;;5088156;28;20480;-84
2021/05/04 10:48:45;;;;;;;0.20;0.20;;;24.10;46.80;;;;;;5090087;28;20103;-84
2021/05/04 10:51:16;;;;;;;0.50;0.50;;;24.20;47.60;;;;;;5089733;28;20016;-84
2021/05/04 10:53:56;;;;;;;0.20;0.20;;;23.80;47.10;;;;;;5089554;28;20126;-83
2021/05/04 10:56:36;;;;;;;1.02;0.52;;;23.90;46.50;;;;;;5089814;28;20038;-83
2021/05/04 10:59:03;;;;;;;0.30;0.30;;;24.80;46.30;;;;;;5089136;28;20097;-84
2021/05/04 11:01:29;;;;;;;0.10;0.10;;;25.10;45.00;;;;;;5059698;28;20032;-84
2021/05/04 11:04:00;;;;;;;0.13;0.13;;;24.10;45.30;;;;;;5049198;28;20036;-84
2021/05/04 11:06:26;;;;;;;0.95;0.30;;;24.50;47.40;;;;;;5049467;28;20036;-84
2021/05/04 11:08:51;;;;;;;0.50;0.50;;;25.30;41.20;;;;;;5048953;28;20049;-84
2021/05/04 11:11:38;;;;;;;0.57;0.57;;;23.40;45.90;;;;;;5054735;28;20064;-84
2021/05/04 11:14:06;;;;;;;0.00;0.00;;;21.60;51.50;;;;;;5069272;28;20032;-84
2021/05/04 11:16:40;;;;;;;0.00;0.00;;;21.60;52.20;;;;;;5069115;28;20796;-83
2021/05/04 11:19:08;;;;;;;0.08;0.08;;;23.10;48.60;;;;;;5069399;28;20384;-84
2021/05/04 11:21:42;;;;;;;0.30;0.30;;;21.80;51.60;;;;;;5069326;28;20033;-83
2021/05/04 11:24:25;;;;;;;0.10;0.10;;;19.70;54.10;;;;;;5067581;28;20689;-84
2021/05/04 11:26:57;;;;;;;0.10;0.10;;;20.20;54.60;;;;;;5069260;28;20017;-84
2021/05/04 11:29:31;;;;;;;0.05;0.05;;;20.80;54.50;;;;;;5079611;28;20062;-84
2021/05/04 11:32:34;;;;;;;0.17;0.17;;;21.40;53.00;;;;;;5089225;28;20016;-84
2021/05/04 11:35:02;;;;;;;0.13;0.13;;;21.30;52.30;;;;;;5089094;28;20673;-83
2021/05/04 11:37:29;;;;;;;0.00;0.00;;;21.50;51.50;;;;;;5088000;28;20043;-83
2021/05/04 11:40:02;;;;;;;0.10;0.10;;;21.50;52.00;;;;;;5089057;28;20028;-83
2021/05/04 11:42:37;;;;;;;0.00;0.00;;;20.30;54.00;;;;;;5089216;28;20500;-83
2021/05/04 11:45:09;;;;;;;0.00;0.00;;;19.50;56.10;;;;;;5089200;28;20460;-83
2021/05/04 11:47:36;;;;;;;0.00;0.00;;;19.90;55.50;;;;;;5088007;28;20024;-83
2021/05/04 11:50:18;;;;;;;0.13;0.13;;;20.50;54.70;;;;;;5088640;28;20033;-83
2021/05/04 11:52:47;;;;;;;0.73;0.55;;;20.40;55.10;;;;;;5089003;28;20020;-84
2021/05/04 11:55:20;;;;;;;0.10;0.10;;;20.30;54.30;;;;;;5089076;28;20078;-84
2021/05/04 11:57:57;;;;;;;0.10;0.10;;;20.30;55.50;;;;;;5088011;28;20404;-83
2021/05/04 12:00:24;;;;;;;;;;;19.80;56.50;;;;;;5083972;28;20070;-83
2021/05/04 12:02:50;;;;;;;0.28;0.28;;;19.70;55.80;;;;;;5068936;28;20372;-84
2021/05/04 12:05:27;;;;;;;0.13;0.13;;;19.80;56.40;;;;;;5068938;28;20024;-84
2021/05/04 12:07:55;;;;;;;0.13;0.13;;;20.20;55.50;;;;;;5067505;28;20348;-84
2021/05/04 12:10:36;;;;;;;0.70;0.38;;;20.10;56.30;;;;;;5068752;28;20082;-84
2021/05/04 12:13:10;;;;;;;0.13;0.13;;;20.30;55.50;;;;;;5049195;28;20169;-84
2021/05/04 12:15:38;;;;;;;0.30;0.30;;;19.70;57.50;;;;;;5048800;28;20025;-84
2021/05/04 12:18:17;;;;;;;0.22;0.22;;;19.90;56.30;;;;;;5049073;28;20035;-84
2021/05/04 12:20:48;;;;;;;0.30;0.30;;;19.80;55.60;;;;;;5068893;28;20039;-84
2021/05/04 12:23:27;;;;;;;0.10;0.10;;;20.20;56.70;;;;;;5067372;28;20029;-83
2021/05/04 12:26:00;;;;;;;2.45;0.90;;;20.20;56.60;;;;;;5067632;28;20029;-83
2021/05/04 12:28:31;;;;;;;0.08;0.08;;;20.30;55.70;;;;;;5070096;28;20025;-83
2021/05/04 12:31:07;;;;;;;0.10;0.10;;;19.90;57.50;;;;;;5072318;28;20028;-83
2021/05/04 12:33:34;;;;;;;0.30;0.30;;;19.00;57.60;;;;;;5072078;28;20020;-83
2021/05/04 12:36:06;;;;;;;0.20;0.20;;;19.60;57.70;;;;;;5070735;28;20403;-82
2021/05/04 12:38:57;;;;;;;4.40;1.48;;;19.80;57.00;;;;;;5070842;28;20025;-83
2021/05/04 12:41:33;;;;;;;0.55;0.32;;;19.30;57.80;;;;;;5072222;28;20020;-83
2021/05/04 12:44:11;;;;;;;0.70;0.43;;;20.10;56.90;;;;;;5086581;28;20016;-83
2021/05/04 12:46:44;;;;;;;0.10;0.10;;;20.00;56.70;;;;;;5092087;28;20020;-83
2021/05/04 12:49:11;;;;;;;0.13;0.13;;;20.10;56.60;;;;;;5092210;28;20540;-83
2021/05/04 12:51:39;;;;;;;0.38;0.15;;;20.00;56.70;;;;;;5092100;28;20399;-83
2021/05/04 12:54:13;;;;;;;0.20;0.20;;;19.80;56.90;;;;;;5091956;28;20047;-83
2021/05/04 12:56:39;;;;;;;0.90;0.20;;;19.60;57.60;;;;;;5051605;28;20021;-83
2021/05/04 12:59:10;;;;;;;0.50;0.30;;;19.50;58.10;;;;;;5050499;28;20519;-84
2021/05/04 13:01:44;;;;;;;0.22;0.22;;;19.30;58.60;;;;;;5051746;28;20037;-84
2021/05/04 13:04:39;;;;;;;0.28;0.08;;;19.70;58.20;;;;;;5051407;28;20029;-84